createdAt,value
2018-12-17T00:00:26.078Z,13.70
2018-12-17T00:02:55.148Z,13.60
2018-12-17T00:05:24.146Z,13.70
2018-12-17T00:07:53.047Z,13.60
2018-12-17T00:10:22.064Z,13.60
2018-12-17T00:12:51.062Z,13.60
2018-12-17T00:15:20.091Z,13.60
2018-12-17T00:17:49.036Z,13.60
2018-12-17T00:20:17.986Z,13.60
2018-12-17T00:22:47.108Z,13.70
2018-12-17T00:25:16.096Z,13.60
2018-12-17T00:27:45.223Z,13.60
2018-12-17T00:30:14.256Z,13.60
2018-12-17T00:32:43.373Z,13.60
2018-12-17T00:35:12.361Z,13.60
2018-12-17T00:37:41.380Z,13.60
2018-12-17T00:40:10.726Z,13.60
2018-12-17T00:42:39.673Z,13.60
2018-12-17T00:45:08.519Z,13.70
2018-12-17T00:47:37.536Z,13.60
2018-12-17T00:50:06.951Z,13.60
2018-12-17T00:52:35.951Z,13.60
2018-12-17T00:55:05.264Z,13.60
2018-12-17T00:57:34.320Z,13.60
2018-12-17T01:00:03.433Z,13.60
2018-12-17T01:02:32.522Z,13.60
2018-12-17T01:05:02.156Z,13.60
2018-12-17T01:07:31.812Z,13.60
2018-12-17T01:12:26.225Z,13.60
2018-12-17T01:14:55.423Z,13.60
2018-12-17T01:17:24.407Z,13.60
2018-12-17T01:19:53.552Z,13.60
2018-12-17T01:22:22.641Z,13.60
2018-12-17T01:24:51.651Z,13.60
2018-12-17T01:27:20.773Z,13.60
2018-12-17T01:29:49.880Z,13.60
2018-12-17T01:32:18.888Z,13.60
2018-12-17T01:34:48.032Z,13.60
2018-12-17T01:37:16.907Z,13.60
2018-12-17T01:39:45.932Z,13.60
2018-12-17T01:42:14.928Z,13.60
2018-12-17T01:44:43.933Z,13.60
2018-12-17T01:47:13.056Z,13.50
2018-12-17T01:49:42.002Z,13.60
2018-12-17T01:52:11.103Z,13.50
2018-12-17T01:54:40.105Z,13.50
2018-12-17T01:57:09.096Z,13.50
2018-12-17T01:59:38.146Z,13.50
2018-12-17T02:02:07.064Z,13.50
2018-12-17T02:04:36.139Z,13.50
2018-12-17T02:07:05.266Z,13.50
2018-12-17T02:09:34.357Z,13.50
2018-12-17T02:12:03.481Z,13.40
2018-12-17T02:14:32.484Z,13.40
2018-12-17T02:17:01.499Z,13.60
2018-12-17T02:19:30.604Z,13.60
2018-12-17T02:21:59.735Z,13.60
2018-12-17T02:24:28.727Z,13.60
2018-12-17T02:26:57.773Z,13.60
2018-12-17T02:29:26.763Z,13.60
2018-12-17T02:31:55.744Z,13.60
2018-12-17T02:34:24.720Z,13.60
2018-12-17T02:36:53.883Z,13.60
2018-12-17T02:39:23.093Z,13.60
2018-12-17T02:41:52.111Z,13.60
2018-12-17T02:44:22.191Z,13.60
2018-12-17T02:46:51.504Z,13.60
2018-12-17T02:49:20.824Z,13.50
2018-12-17T02:51:49.638Z,13.60
2018-12-17T02:54:18.701Z,13.50
2018-12-17T02:56:47.797Z,13.40
2018-12-17T02:59:16.816Z,13.40
2018-12-17T03:01:45.824Z,13.40
2018-12-17T03:04:14.852Z,13.30
2018-12-17T03:06:43.956Z,13.30
2018-12-17T03:09:13.065Z,13.40
2018-12-17T03:11:42.823Z,13.30
2018-12-17T03:14:11.793Z,13.30
2018-12-17T03:16:40.608Z,13.30
2018-12-17T03:19:09.419Z,13.30
2018-12-17T03:21:38.448Z,13.30
2018-12-17T03:24:07.579Z,13.30
2018-12-17T03:26:36.551Z,13.20
2018-12-17T03:29:05.565Z,13.30
2018-12-17T03:31:35.130Z,13.20
2018-12-17T03:34:04.092Z,13.20
2018-12-17T03:36:33.215Z,12.80
2018-12-17T03:39:02.221Z,13.30
2018-12-17T03:41:31.179Z,13.30
2018-12-17T03:44:00.238Z,13.30
2018-12-17T03:46:29.755Z,13.30
2018-12-17T03:48:58.764Z,13.30
2018-12-17T03:51:27.678Z,13.20
2018-12-17T03:53:56.757Z,13.30
2018-12-17T03:56:25.819Z,13.30
2018-12-17T03:58:59.272Z,13.30
2018-12-17T04:01:25.885Z,13.30
2018-12-17T04:03:54.783Z,13.40
2018-12-17T04:06:23.598Z,13.20
2018-12-17T04:08:52.588Z,13.20
2018-12-17T04:11:22.766Z,13.20
2018-12-17T04:13:51.684Z,13.30
2018-12-17T04:16:20.663Z,13.20
2018-12-17T04:18:49.931Z,13.60
2018-12-17T04:21:18.899Z,13.30
2018-12-17T04:23:47.874Z,13.30
2018-12-17T04:26:16.919Z,12.60
2018-12-17T04:28:45.725Z,13.30
2018-12-17T04:31:14.456Z,13.50
2018-12-17T04:33:43.170Z,13.80
2018-12-17T04:36:12.023Z,13.70
2018-12-17T04:38:40.925Z,13.80
2018-12-17T04:41:09.942Z,14.50
2018-12-17T04:43:38.948Z,15.00
2018-12-17T04:46:07.665Z,15.00
2018-12-17T04:48:36.388Z,14.60
2018-12-17T04:51:06.552Z,14.50
2018-12-17T04:53:35.723Z,14.40
2018-12-17T04:56:04.640Z,15.00
2018-12-17T04:58:33.631Z,14.40
2018-12-17T05:01:02.632Z,15.20
2018-12-17T05:03:31.591Z,14.70
2018-12-17T05:06:00.544Z,14.70
2018-12-17T05:08:29.571Z,14.60
2018-12-17T05:10:58.583Z,14.60
2018-12-17T05:13:27.567Z,14.60
2018-12-17T05:15:56.638Z,14.60
2018-12-17T05:18:25.613Z,14.50
2018-12-17T05:20:54.608Z,14.10
2018-12-17T05:23:23.621Z,14.70
2018-12-17T05:25:52.740Z,14.20
2018-12-17T05:28:21.767Z,14.30
2018-12-17T05:30:51.584Z,14.50
2018-12-17T05:33:20.944Z,14.50
2018-12-17T05:35:49.907Z,14.50
2018-12-17T05:38:18.939Z,14.50
2018-12-17T05:40:47.960Z,14.50
2018-12-17T05:43:16.949Z,14.50
2018-12-17T05:45:45.941Z,14.50
2018-12-17T05:48:15.272Z,14.50
2018-12-17T05:50:44.230Z,14.50
2018-12-17T05:53:13.198Z,14.50
2018-12-17T05:55:42.183Z,14.50
2018-12-17T05:58:11.194Z,14.50
2018-12-17T06:00:40.212Z,14.50
2018-12-17T06:03:09.341Z,14.50
2018-12-17T06:05:38.358Z,14.40
2018-12-17T06:08:09.492Z,14.50
2018-12-17T06:10:38.503Z,14.50
2018-12-17T06:13:07.635Z,14.50
2018-12-17T06:15:36.639Z,14.50
2018-12-17T06:18:05.755Z,14.40
2018-12-17T06:20:34.651Z,14.40
2018-12-17T06:23:03.759Z,14.30
2018-12-17T06:25:33.388Z,14.30
2018-12-17T06:28:02.414Z,14.30
2018-12-17T06:30:31.620Z,14.30
2018-12-17T06:33:00.537Z,14.30
2018-12-17T06:35:29.801Z,14.30
2018-12-17T06:37:58.760Z,14.30
2018-12-17T06:40:27.868Z,14.30
2018-12-17T06:42:56.981Z,14.20
2018-12-17T06:45:25.982Z,14.20
2018-12-17T06:47:55.011Z,14.10
2018-12-17T06:50:24.033Z,14.10
2018-12-17T06:52:53.016Z,14.00
2018-12-17T06:55:22.044Z,14.10
2018-12-17T06:57:51.535Z,14.00
2018-12-17T07:00:20.458Z,14.00
2018-12-17T07:02:49.456Z,13.90
2018-12-17T07:05:18.360Z,13.80
2018-12-17T07:07:47.484Z,13.90
2018-12-17T07:10:16.613Z,13.90
2018-12-17T07:12:45.760Z,13.80
2018-12-17T07:15:14.834Z,13.80
2018-12-17T07:17:43.949Z,13.70
2018-12-17T07:20:12.936Z,13.70
2018-12-17T07:22:41.894Z,13.80
2018-12-17T07:25:10.826Z,13.60
2018-12-17T07:27:39.896Z,13.60
2018-12-17T07:30:09.209Z,13.70
2018-12-17T07:32:38.321Z,13.60
2018-12-17T07:35:07.581Z,13.60
2018-12-17T07:37:36.542Z,13.60
2018-12-17T07:40:05.938Z,13.70
2018-12-17T07:42:34.967Z,13.60
2018-12-17T07:45:05.258Z,13.60
2018-12-17T07:47:34.282Z,13.60
2018-12-17T07:50:03.237Z,13.60
2018-12-17T07:52:32.940Z,13.70
2018-12-17T07:55:02.076Z,13.60
2018-12-17T07:57:31.037Z,13.60
2018-12-17T08:00:00.011Z,13.60
2018-12-17T08:02:28.912Z,13.60
2018-12-17T08:04:57.905Z,13.60
2018-12-17T08:07:27.016Z,13.60
2018-12-17T08:09:56.137Z,13.60
2018-12-17T08:12:25.093Z,13.60
2018-12-17T08:14:54.058Z,13.60
2018-12-17T08:17:23.063Z,13.70
2018-12-17T08:19:52.302Z,13.60
2018-12-17T08:22:21.744Z,13.60
2018-12-17T08:24:50.995Z,13.60
2018-12-17T08:27:20.038Z,13.70
2018-12-17T08:29:48.979Z,13.60
2018-12-17T08:32:17.945Z,13.60
2018-12-17T08:34:46.953Z,13.70
2018-12-17T08:37:15.964Z,13.60
2018-12-17T08:39:44.886Z,13.60
2018-12-17T08:42:13.935Z,13.60
2018-12-17T08:44:43.669Z,13.60
2018-12-17T08:47:12.641Z,13.70
2018-12-17T08:49:41.623Z,13.70
2018-12-17T08:52:10.755Z,13.60
2018-12-17T08:54:39.897Z,13.60
2018-12-17T08:57:08.885Z,13.70
2018-12-17T08:59:38.079Z,13.50
2018-12-17T09:02:07.039Z,13.50
2018-12-17T09:04:36.078Z,13.40
2018-12-17T09:07:05.008Z,13.50
2018-12-17T09:09:34.132Z,13.40
2018-12-17T09:12:03.246Z,13.40
2018-12-17T09:14:32.357Z,13.50
2018-12-17T09:17:01.482Z,13.40
2018-12-17T09:19:30.489Z,13.50
2018-12-17T09:21:59.585Z,13.40
2018-12-17T09:24:28.543Z,13.40
2018-12-17T09:26:58.185Z,13.30
2018-12-17T09:29:27.338Z,13.40
2018-12-17T09:31:57.031Z,13.40
2018-12-17T09:34:25.970Z,13.30
2018-12-17T09:36:55.085Z,13.30
2018-12-17T09:39:24.100Z,13.30
2018-12-17T09:41:53.104Z,13.40
2018-12-17T09:44:22.225Z,13.50
2018-12-17T09:46:51.346Z,13.40
2018-12-17T09:49:20.716Z,13.40
2018-12-17T09:51:49.649Z,13.50
2018-12-17T09:54:18.556Z,13.50
2018-12-17T09:56:47.668Z,13.50
2018-12-17T09:59:17.301Z,13.60
2018-12-17T10:01:48.348Z,12.90
2018-12-17T10:04:17.380Z,13.10
2018-12-17T10:06:46.494Z,13.40
2018-12-17T10:09:15.638Z,13.60
2018-12-17T10:11:44.717Z,13.60
2018-12-17T10:14:13.737Z,13.60
2018-12-17T10:16:43.055Z,13.60
2018-12-17T10:19:12.148Z,13.60
2018-12-17T10:21:41.157Z,13.60
2018-12-17T10:24:10.298Z,13.60
2018-12-17T10:26:39.954Z,13.60
2018-12-17T10:29:08.840Z,13.90
2018-12-17T10:31:37.819Z,13.60
2018-12-17T10:34:06.715Z,13.60
2018-12-17T10:36:35.826Z,13.60
2018-12-17T10:39:06.655Z,13.60
2018-12-17T10:41:35.715Z,13.60
2018-12-17T10:44:04.845Z,13.60
2018-12-17T10:46:33.778Z,13.60
2018-12-17T10:49:02.723Z,13.70
2018-12-17T10:51:31.952Z,13.70
2018-12-17T10:54:00.967Z,13.60
2018-12-17T10:56:30.172Z,13.70
2018-12-17T10:58:59.172Z,13.70
2018-12-17T11:01:33.302Z,13.70
2018-12-17T11:04:08.590Z,13.70
2018-12-17T11:06:37.601Z,13.70
2018-12-17T11:09:08.427Z,13.70
2018-12-17T11:11:37.358Z,13.60
2018-12-17T11:14:06.252Z,13.60
2018-12-17T11:16:35.268Z,13.50
2018-12-17T11:19:04.980Z,13.50
2018-12-17T11:21:34.570Z,13.50
2018-12-17T11:24:03.509Z,13.40
2018-12-17T11:26:32.403Z,13.50
2018-12-17T11:29:01.560Z,13.40
2018-12-17T11:31:30.648Z,13.40
2018-12-17T11:34:00.275Z,13.40
2018-12-17T11:36:29.180Z,13.40
2018-12-17T11:38:58.297Z,13.40
2018-12-17T11:41:27.249Z,13.40
2018-12-17T11:43:57.128Z,13.40
2018-12-17T11:46:26.143Z,13.40
2018-12-17T11:48:55.146Z,13.40
2018-12-17T11:51:24.171Z,13.50
2018-12-17T11:53:53.295Z,13.40
2018-12-17T11:56:27.200Z,13.50
2018-12-17T11:58:56.147Z,13.50
2018-12-17T12:01:25.150Z,13.50
2018-12-17T12:03:54.238Z,13.60
2018-12-17T12:06:23.195Z,13.60
2018-12-17T12:08:52.143Z,13.60
2018-12-17T12:11:21.277Z,13.70
2018-12-17T12:13:50.302Z,13.70
2018-12-17T12:16:19.303Z,13.70
2018-12-17T12:18:48.411Z,13.70
2018-12-17T12:21:17.424Z,13.70
2018-12-17T12:23:46.530Z,13.70
2018-12-17T12:26:15.635Z,13.70
2018-12-17T12:28:44.640Z,13.70
2018-12-17T12:31:13.656Z,13.70
2018-12-17T12:33:42.698Z,13.70
2018-12-17T12:36:11.620Z,13.70
2018-12-17T12:38:40.696Z,13.70
2018-12-17T12:41:09.579Z,13.70
2018-12-17T12:43:38.596Z,13.70
2018-12-17T12:46:07.585Z,13.60
2018-12-17T12:48:36.625Z,13.60
2018-12-17T12:51:05.629Z,13.70
2018-12-17T12:53:34.653Z,13.60
2018-12-17T12:56:03.796Z,13.70
2018-12-17T12:58:32.870Z,13.80
2018-12-17T13:01:07.673Z,13.80
2018-12-17T13:03:32.768Z,13.80
2018-12-17T13:06:01.638Z,13.80
2018-12-17T13:08:31.318Z,13.80
2018-12-17T13:11:00.277Z,13.90
2018-12-17T13:13:29.267Z,13.90
2018-12-17T13:15:58.295Z,13.90
2018-12-17T13:18:27.247Z,13.90
2018-12-17T13:20:56.211Z,14.00
2018-12-17T13:23:25.251Z,14.10
2018-12-17T13:25:54.375Z,14.00
2018-12-17T13:28:23.314Z,14.10
2018-12-17T13:30:52.448Z,14.10
2018-12-17T13:33:21.468Z,14.10
2018-12-17T13:35:50.658Z,14.00
2018-12-17T13:38:19.603Z,14.10
2018-12-17T13:40:48.609Z,14.00
2018-12-17T13:43:17.628Z,13.90
2018-12-17T13:45:46.631Z,14.10
2018-12-17T13:48:15.651Z,14.00
2018-12-17T13:50:44.656Z,14.00
2018-12-17T13:53:18.853Z,14.00
2018-12-17T13:55:47.585Z,14.00
2018-12-17T13:58:16.697Z,13.90
2018-12-17T14:00:45.665Z,13.90
2018-12-17T14:03:14.716Z,14.00
2018-12-17T14:05:43.714Z,14.00
2018-12-17T14:08:12.679Z,14.00
2018-12-17T14:10:46.802Z,14.00
2018-12-17T14:13:15.782Z,14.10
2018-12-17T14:15:49.696Z,14.00
2018-12-17T14:18:24.068Z,13.90
2018-12-17T14:20:58.240Z,14.00
2018-12-17T14:23:27.746Z,14.00
2018-12-17T14:25:56.714Z,13.90
2018-12-17T14:28:25.913Z,13.90
2018-12-17T14:30:55.048Z,13.90
2018-12-17T14:33:24.241Z,13.90
2018-12-17T14:35:58.336Z,13.90
2018-12-17T14:38:27.374Z,13.90
2018-12-17T14:40:56.275Z,13.90
2018-12-17T14:43:25.458Z,13.90
2018-12-17T14:45:54.512Z,13.90
2018-12-17T14:48:23.526Z,14.00
2018-12-17T14:50:52.637Z,13.90
2018-12-17T14:53:21.642Z,13.90
2018-12-17T14:55:50.751Z,13.90
2018-12-17T14:58:19.774Z,13.90
2018-12-17T15:00:49.339Z,13.90
2018-12-17T15:03:18.408Z,13.90
2018-12-17T15:05:47.415Z,13.80
2018-12-17T15:08:16.433Z,13.80
2018-12-17T15:10:45.385Z,13.90
2018-12-17T15:13:14.338Z,13.80
2018-12-17T15:15:43.339Z,13.90
2018-12-17T15:18:12.468Z,13.80
2018-12-17T15:20:41.481Z,13.80
2018-12-17T15:23:10.880Z,13.70
2018-12-17T15:25:39.922Z,13.70
2018-12-17T15:28:09.013Z,13.70
2018-12-17T15:30:37.949Z,13.70
2018-12-17T15:33:06.842Z,13.70
2018-12-17T15:35:35.975Z,13.70
2018-12-17T15:38:04.967Z,13.70
2018-12-17T15:40:33.959Z,13.60
2018-12-17T15:43:02.973Z,13.70
2018-12-17T15:45:32.029Z,13.70
2018-12-17T15:48:00.980Z,13.70
2018-12-17T15:50:30.004Z,13.70
2018-12-17T15:52:59.146Z,13.80
2018-12-17T15:55:28.146Z,13.90
2018-12-17T15:57:57.577Z,13.90
2018-12-17T16:00:26.568Z,14.00
2018-12-17T16:02:55.555Z,14.00
2018-12-17T16:05:24.585Z,14.00
2018-12-17T16:07:53.650Z,14.00
2018-12-17T16:10:22.721Z,14.00
2018-12-17T16:12:51.725Z,14.10
2018-12-17T16:15:20.839Z,14.10
2018-12-17T16:17:49.857Z,14.10
2018-12-17T16:20:18.891Z,14.00
2018-12-17T16:22:47.859Z,14.00
2018-12-17T16:25:16.867Z,14.00
2018-12-17T16:27:45.898Z,14.00
2018-12-17T16:30:14.990Z,14.00
2018-12-17T16:32:44.011Z,14.00
2018-12-17T16:35:13.033Z,14.00
2018-12-17T16:37:42.039Z,14.00
2018-12-17T16:40:11.051Z,14.20
2018-12-17T16:42:40.101Z,14.10
2018-12-17T16:45:10.180Z,14.10
2018-12-17T16:47:39.297Z,14.10
2018-12-17T16:50:09.403Z,14.20
2018-12-17T16:52:38.447Z,14.00
2018-12-17T16:55:07.454Z,13.90
2018-12-17T16:57:36.691Z,14.00
2018-12-17T17:00:06.651Z,14.00
2018-12-17T17:02:35.608Z,14.00
2018-12-17T17:05:04.847Z,13.70
2018-12-17T17:07:33.794Z,14.20
2018-12-17T17:10:06.196Z,14.80
2018-12-17T17:12:35.441Z,14.80
2018-12-17T17:15:04.971Z,15.20
2018-12-17T17:17:33.964Z,15.60
2018-12-17T17:20:03.001Z,15.70
2018-12-17T17:22:32.002Z,15.60
2018-12-17T17:25:00.921Z,15.70
2018-12-17T17:27:30.030Z,15.90
2018-12-17T17:29:58.937Z,15.90
2018-12-17T17:32:28.036Z,16.10
2018-12-17T17:34:57.151Z,16.20
2018-12-17T17:37:26.155Z,16.20
2018-12-17T17:39:55.169Z,16.20
2018-12-17T17:42:24.288Z,16.20
2018-12-17T17:44:53.391Z,16.20
2018-12-17T17:47:22.422Z,16.20
2018-12-17T17:49:51.519Z,16.00
2018-12-17T17:52:20.633Z,16.10
2018-12-17T17:54:49.672Z,16.10
2018-12-17T17:57:18.760Z,16.10
2018-12-17T17:59:47.979Z,16.10
2018-12-17T18:02:18.941Z,16.10
2018-12-17T18:04:48.271Z,16.20
2018-12-17T18:07:17.369Z,16.30
2018-12-17T18:09:46.301Z,16.60
2018-12-17T18:12:15.380Z,16.40
2018-12-17T18:14:44.754Z,16.50
2018-12-17T18:17:13.686Z,16.50
2018-12-17T18:19:42.721Z,16.90
2018-12-17T18:22:11.748Z,16.80
2018-12-17T18:24:40.849Z,16.80
2018-12-17T18:27:09.854Z,16.70
2018-12-17T18:29:38.878Z,16.60
2018-12-17T18:32:07.842Z,16.60
2018-12-17T18:34:36.885Z,16.60
2018-12-17T18:37:05.894Z,16.50
2018-12-17T18:39:34.913Z,16.50
2018-12-17T18:42:03.925Z,16.40
2018-12-17T18:44:32.868Z,16.40
2018-12-17T18:47:01.837Z,16.40
2018-12-17T18:49:30.947Z,16.40
2018-12-17T18:52:00.055Z,16.40
2018-12-17T18:54:28.964Z,16.40
2018-12-17T18:56:58.740Z,16.30
2018-12-17T18:59:28.621Z,16.30
2018-12-17T19:01:57.742Z,16.40
2018-12-17T19:04:26.763Z,16.30
2018-12-17T19:06:55.772Z,16.30
2018-12-17T19:09:24.674Z,16.30
2018-12-17T19:11:53.827Z,16.20
2018-12-17T19:14:22.796Z,16.40
2018-12-17T19:16:51.708Z,16.60
2018-12-17T19:19:20.720Z,16.60
2018-12-17T19:21:49.838Z,16.80
2018-12-17T19:24:18.832Z,16.60
2018-12-17T19:26:48.065Z,16.60
2018-12-17T19:29:17.145Z,16.60
2018-12-17T19:31:46.175Z,16.50
2018-12-17T19:34:15.311Z,16.40
2018-12-17T19:36:44.846Z,16.40
2018-12-17T19:39:13.832Z,17.00
2018-12-17T19:41:42.785Z,16.30
2018-12-17T19:44:11.757Z,16.20
2018-12-17T19:46:40.848Z,16.20
2018-12-17T19:49:09.879Z,16.10
2018-12-17T19:51:38.781Z,16.00
2018-12-17T19:54:07.896Z,16.00
2018-12-17T19:56:37.015Z,16.00
2018-12-17T19:59:06.004Z,16.00
2018-12-17T20:01:35.016Z,15.80
2018-12-17T20:04:04.132Z,15.80
2018-12-17T20:06:33.358Z,15.80
2018-12-17T20:09:02.524Z,15.80
2018-12-17T20:11:31.773Z,15.80
2018-12-17T20:14:00.956Z,15.70
2018-12-17T20:16:30.139Z,15.70
2018-12-17T20:18:59.111Z,15.70
2018-12-17T20:21:28.331Z,15.70
2018-12-17T20:23:57.239Z,15.60
2018-12-17T20:26:26.668Z,15.60
2018-12-17T20:28:55.680Z,15.50
2018-12-17T20:31:24.675Z,15.50
2018-12-17T20:33:53.704Z,15.50
2018-12-17T20:36:22.794Z,15.50
2018-12-17T20:38:52.088Z,15.40
2018-12-17T20:41:21.222Z,15.40
2018-12-17T20:43:50.256Z,15.40
2018-12-17T20:46:19.135Z,15.40
2018-12-17T20:48:48.059Z,15.40
2018-12-17T20:51:17.065Z,15.40
2018-12-17T20:53:46.068Z,15.30
2018-12-17T20:56:15.300Z,15.80
2018-12-17T20:58:44.292Z,15.20
2018-12-17T21:01:13.593Z,15.20
2018-12-17T21:03:42.733Z,15.20
2018-12-17T21:06:12.370Z,15.20
2018-12-17T21:08:41.369Z,15.20
2018-12-17T21:11:10.341Z,15.10
2018-12-17T21:13:39.710Z,15.10
2018-12-17T21:16:08.712Z,15.20
2018-12-17T21:18:37.736Z,15.00
2018-12-17T21:21:06.712Z,15.00
2018-12-17T21:23:36.000Z,15.60
2018-12-17T21:26:05.159Z,15.00
2018-12-17T21:28:34.309Z,15.00
2018-12-17T21:31:03.288Z,14.90
2018-12-17T21:33:32.291Z,14.90
2018-12-17T21:36:01.193Z,14.90
2018-12-17T21:38:30.603Z,14.80
2018-12-17T21:40:59.728Z,14.80
2018-12-17T21:43:28.856Z,14.80
2018-12-17T21:45:57.972Z,14.70
2018-12-17T21:48:26.982Z,14.70
2018-12-17T21:50:56.077Z,14.70
2018-12-17T21:53:25.093Z,14.60
2018-12-17T21:55:54.224Z,14.60
2018-12-17T21:58:23.230Z,14.60
2018-12-17T22:00:52.117Z,14.60
2018-12-17T22:03:21.142Z,14.50
2018-12-17T22:05:50.133Z,14.50
2018-12-17T22:08:19.199Z,14.50
2018-12-17T22:10:48.264Z,14.50
2018-12-17T22:13:17.392Z,14.90
2018-12-17T22:15:46.397Z,14.40
2018-12-17T22:18:15.280Z,14.40
2018-12-17T22:20:44.295Z,14.30
2018-12-17T22:23:13.209Z,14.30
2018-12-17T22:25:42.217Z,14.30
2018-12-17T22:28:11.116Z,14.30
2018-12-17T22:30:40.150Z,14.20
2018-12-17T22:33:09.111Z,14.20
2018-12-17T22:35:38.091Z,14.20
2018-12-17T22:38:07.083Z,14.30
2018-12-17T22:40:36.084Z,14.10
2018-12-17T22:43:05.106Z,14.20
2018-12-17T22:45:34.091Z,14.00
2018-12-17T22:48:03.062Z,14.10
2018-12-17T22:50:32.120Z,14.10
2018-12-17T22:53:02.649Z,14.10
2018-12-17T22:55:31.784Z,14.10
2018-12-17T22:58:00.753Z,14.00
2018-12-17T23:00:29.811Z,14.10
2018-12-17T23:02:59.470Z,14.10
2018-12-17T23:05:28.435Z,14.00
2018-12-17T23:07:57.339Z,14.10
2018-12-17T23:10:42.598Z,14.00
2018-12-17T23:13:22.489Z,13.80
2018-12-17T23:16:02.660Z,13.90
2018-12-17T23:18:30.332Z,13.90
2018-12-17T23:20:59.340Z,13.90
2018-12-17T23:23:28.361Z,13.90
2018-12-17T23:25:57.163Z,13.90
2018-12-17T23:28:26.279Z,13.90
2018-12-17T23:30:55.386Z,14.00
2018-12-17T23:33:24.386Z,14.00
2018-12-17T23:35:53.296Z,14.00
2018-12-17T23:38:22.296Z,14.00
2018-12-17T23:40:51.220Z,13.90
2018-12-17T23:43:20.251Z,13.90
2018-12-17T23:45:50.066Z,13.80
2018-12-17T23:48:19.077Z,13.90
2018-12-17T23:50:47.982Z,13.90
2018-12-17T23:53:17.096Z,13.80
2018-12-17T23:55:46.036Z,13.80
2018-12-17T23:58:15.112Z,13.90
